Time;durP1;ratioP1;P1;durP2;ratioP2;P2;SDS_P1;SDS_P2;PMS_P1;PMS_P2;Temp;Humidity;BMP_temperature;BMP_pressure;BME280_temperature;BME280_humidity;BME280_pressure;Samples;Min_cycle;Max_cycle;Signal;HPM_P1;HPM_P2
2023/01/29 00:00:09;;;;;;;;;;;;;;;10.76;45.67;101919.25;4955939;28;128040;-66
2023/01/29 00:02:35;;;;;;;;;;;;;;;10.76;45.43;101915.72;4941966;28;97886;-67
2023/01/29 00:05:03;;;;;;;;;;;;;;;10.75;45.25;101914.09;4936771;28;107462;-66
2023/01/29 00:07:29;;;;;;;;;;;;;;;10.74;45.11;101904.38;4941615;28;100109;-66
2023/01/29 00:09:55;;;;;;;;;;;;;;;10.71;45.20;101905.63;4954185;28;98281;-66
2023/01/29 00:12:21;;;;;;;;;;;;;;;10.70;45.26;101904.00;4954535;28;125637;-66
2023/01/29 00:14:46;;;;;;;;;;;;;;;10.68;45.18;101898.00;4956659;28;99179;-66
2023/01/29 00:17:12;;;;;;;;;;;;;;;10.67;45.33;101895.56;4955772;28;128987;-66
2023/01/29 00:19:38;;;;;;;;;;;;;;;10.65;45.18;101889.56;4938178;28;128192;-66
2023/01/29 00:22:04;;;;;;;;;;;;;;;10.64;45.24;101893.31;4954908;28;127540;-66
2023/01/29 00:24:30;;;;;;;;;;;;;;;10.64;45.26;101893.31;4954173;28;118970;-66
2023/01/29 00:26:56;;;;;;;;;;;;;;;10.62;45.54;101890.06;4957258;28;110691;-66
2023/01/29 00:29:22;;;;;;;;;;;;;;;10.60;45.16;101882.19;4940002;28;100458;-66
2023/01/29 00:31:48;;;;;;;;;;;;;;;10.60;45.12;101884.88;4959806;28;127304;-66
2023/01/29 00:34:14;;;;;;;;;;;;;;;10.58;45.29;101876.22;4955311;28;116720;-66
2023/01/29 00:36:40;;;;;;;;;;;;;;;10.56;45.14;101867.53;4958614;28;128711;-66
2023/01/29 00:39:09;;;;;;;;;;;;;;;10.55;45.27;101877.50;4948232;28;101163;-66
2023/01/29 00:47:34;;;;;;;;;;;;;;;10.50;45.47;101885.47;4938983;28;97940;-67
2023/01/29 00:50:10;;;;;;;;;;;;;;;10.49;45.36;101889.22;4941455;28;98695;-66
2023/01/29 00:52:36;;;;;;;;;;;;;;;10.49;45.03;101886.53;4939844;28;98363;-66
2023/01/29 00:55:02;;;;;;;;;;;;;;;10.47;45.37;101880.53;4964021;28;97904;-66
2023/01/29 00:57:29;;;;;;;;;;;;;;;10.46;45.40;101883.47;4959151;28;99216;-66
2023/01/29 00:59:55;;;;;;;;;;;;;;;10.45;45.63;101893.44;4959293;28;98413;-66
2023/01/29 01:05:06;;;;;;;;;;;;;;;10.42;44.99;101885.81;4957255;28;97825;-67
2023/01/29 01:07:32;;;;;;;;;;;;;;;10.41;45.42;101880.63;4944486;28;97974;-66
2023/01/29 01:12:43;;;;;;;;;;;;;;;10.38;45.01;101878.41;4956766;28;97867;-66
2023/01/29 01:15:09;;;;;;;;;;;;;;;10.37;45.28;101877.56;4960496;28;116831;-66
2023/01/29 01:17:35;;;;;;;;;;;;;;;10.35;45.36;101870.78;4947411;28;121864;-66
2023/01/29 01:20:01;;;;;;;;;;;;;;;10.33;44.91;101871.00;4959116;28;128271;-66
2023/01/29 01:22:27;;;;;;;;;;;;;;;10.32;44.92;101867.47;4926564;28;127083;-67
2023/01/29 01:24:53;;;;;;;;;;;;;;;10.31;45.23;101862.34;4958127;28;117117;-66
2023/01/29 01:27:18;;;;;;;;;;;;;;;10.29;45.08;101859.84;4942183;28;128375;-67
2023/01/29 01:29:45;;;;;;;;;;;;;;;10.29;45.64;101853.66;4943174;28;127631;-66
2023/01/29 01:32:11;;;;;;;;;;;;;;;10.25;44.91;101847.91;4957532;28;97940;-66
2023/01/29 01:34:37;;;;;;;;;;;;;;;10.26;45.31;101856.84;4958209;28;115578;-66
2023/01/29 01:37:03;;;;;;;;;;;;;;;10.25;45.33;101860.56;4941967;28;126884;-66
2023/01/29 01:39:29;;;;;;;;;;;;;;;10.23;45.25;101860.78;4958392;28;118034;-67
2023/01/29 01:41:55;;;;;;;;;;;;;;;10.23;44.99;101857.25;4957133;28;127292;-66
2023/01/29 01:44:53;;;;;;;;;;;;;;;10.21;45.55;101868.25;4958337;28;97885;-66
2023/01/29 01:47:32;;;;;;;;;;;;;;;10.20;45.01;101860.41;4957818;28;98239;-66
2023/01/29 01:50:02;;;;;;;;;;;;;;;10.18;45.57;101852.56;4941579;28;113625;-66
2023/01/29 01:52:29;;;;;;;;;;;;;;;10.16;45.17;101835.78;4942111;28;122689;-66
2023/01/29 01:54:55;;;;;;;;;;;;;;;10.15;44.98;101836.84;4940410;28;97985;-66
2023/01/29 01:57:23;;;;;;;;;;;;;;;10.15;45.26;101831.47;4956142;28;126956;-66
2023/01/29 01:59:53;;;;;;;;;;;;;;;10.14;45.51;101835.22;4944720;28;98495;-65
2023/01/29 02:10:43;;;;;;;;;;;;;;;10.10;45.05;101831.34;4944175;28;98351;-65
2023/01/29 02:13:09;;;;;;;;;;;;;;;10.09;45.40;101829.69;4958550;28;98075;-65
2023/01/29 02:15:34;;;;;;;;;;;;;;;10.06;44.95;101830.97;4939142;28;116367;-66
2023/01/29 02:18:00;;;;;;;;;;;;;;;10.07;44.93;101827.22;4941237;28;128152;-65
2023/01/29 02:20:28;;;;;;;;;;;;;;;10.06;45.51;101827.44;4957235;28;126540;-67
2023/01/29 02:22:54;;;;;;;;;;;;;;;10.06;45.21;101835.53;4941717;28;100149;-66
2023/01/29 02:25:25;;;;;;;;;;;;;;;10.04;44.93;101835.75;4956303;28;98077;-66
2023/01/29 02:28:20;;;;;;;;;;;;;;;10.04;45.25;101838.47;4958474;28;98286;-66
2023/01/29 02:30:46;;;;;;;;;;;;;;;10.03;45.60;101826.06;4941592;28;98334;-66
2023/01/29 02:33:22;;;;;;;;;;;;;;;10.02;45.27;101827.09;4955278;28;99360;-66
2023/01/29 02:36:05;;;;;;;;;;;;;;;10.02;44.78;101835.19;4959970;27;98022;-66
2023/01/29 02:38:39;;;;;;;;;;;;;;;10.01;45.24;101840.78;4959533;28;98868;-66
2023/01/29 02:41:12;;;;;;;;;;;;;;;10.00;45.04;101844.53;4940297;28;98411;-66
2023/01/29 02:43:46;;;;;;;;;;;;;;;9.99;45.57;101838.34;4958348;28;99689;-66
2023/01/29 02:46:15;;;;;;;;;;;;;;;9.99;45.41;101854.50;4941728;28;98297;-66
2023/01/29 02:48:54;;;;;;;;;;;;;;;9.99;45.54;101846.41;4972121;28;98524;-66
2023/01/29 02:51:36;;;;;;;;;;;;;;;9.97;45.02;101842.31;4958067;28;98195;-66
2023/01/29 02:54:07;;;;;;;;;;;;;;;9.97;45.65;101847.69;4941580;28;119647;-66
2023/01/29 02:56:40;;;;;;;;;;;;;;;9.95;44.94;101842.53;4936546;28;98094;-66
2023/01/29 02:59:15;;;;;;;;;;;;;;;9.95;45.21;101831.78;4941598;28;119509;-66
2023/01/29 03:01:47;;;;;;;;;;;;;;;9.95;45.41;101826.38;4957855;28;126000;-66
2023/01/29 03:04:18;;;;;;;;;;;;;;;9.94;45.09;101824.75;4925301;28;128752;-66
2023/01/29 03:06:50;;;;;;;;;;;;;;;9.93;45.27;101833.03;4941424;28;114914;-66
2023/01/29 03:09:21;;;;;;;;;;;;;;;9.93;45.41;101835.72;4928662;28;100930;-66
2023/01/29 03:11:51;;;;;;;;;;;;;;;9.93;44.74;101830.34;4941071;28;124833;-66
2023/01/29 03:15:10;;;;;;;;;;;;;;;9.92;44.90;101836.78;4939303;28;125613;-66
2023/01/29 03:17:20;;;;;;;;;;;;;;;9.93;44.90;101830.34;4957399;28;98144;-66
2023/01/29 03:19:46;;;;;;;;;;;;;;;9.91;45.46;101825.19;4957542;28;107378;-66
2023/01/29 03:22:12;;;;;;;;;;;;;;;9.90;45.23;101826.22;4956699;28;99280;-66
2023/01/29 03:33:11;;;;;;;;;;;;;;;9.89;45.07;101807.63;4956813;28;98091;-66
2023/01/29 03:35:39;;;;;;;;;;;;;;;9.88;45.26;101806.81;4940569;28;124955;-66
2023/01/29 03:38:10;;;;;;;;;;;;;;;9.89;45.33;101815.69;4942968;28;98243;-66
2023/01/29 03:40:42;;;;;;;;;;;;;;;9.88;44.93;101819.44;4956800;28;98411;-66
2023/01/29 03:43:12;;;;;;;;;;;;;;;9.86;44.94;101819.66;4956761;28;98180;-66
2023/01/29 03:45:59;;;;;;;;;;;;;;;9.86;45.16;101816.16;4956820;28;123298;-65
2023/01/29 03:48:28;;;;;;;;;;;;;;;9.86;45.16;101821.53;4955489;28;118457;-66
2023/01/29 03:51:02;;;;;;;;;;;;;;;9.86;45.17;101805.38;4958806;28;98407;-66
2023/01/29 03:53:32;;;;;;;;;;;;;;;9.85;44.96;101799.16;4957280;28;98504;-68
2023/01/29 03:56:20;;;;;;;;;;;;;;;9.84;44.99;101795.66;4957518;28;99456;-66
2023/01/29 03:58:52;;;;;;;;;;;;;;;9.84;45.04;101801.03;4959716;28;97874;-66
2023/01/29 04:01:40;;;;;;;;;;;;;;;9.84;45.13;101801.03;4956505;28;124015;-66
2023/01/29 04:04:13;;;;;;;;;;;;;;;9.82;44.69;101797.78;4954158;28;125604;-65
2023/01/29 04:06:40;;;;;;;;;;;;;;;9.83;45.12;101799.41;4944885;28;124877;-66
2023/01/29 04:09:11;;;;;;;;;;;;;;;9.81;45.26;101806.88;4941518;28;116527;-66
2023/01/29 04:11:39;;;;;;;;;;;;;;;9.82;45.25;101799.63;4946776;28;124237;-66
2023/01/29 04:14:05;;;;;;;;;;;;;;;9.81;45.33;101801.50;4962093;28;98526;-66
2023/01/29 04:16:35;;;;;;;;;;;;;;;9.82;45.31;101802.31;4961266;28;122507;-66
2023/01/29 04:19:01;;;;;;;;;;;;;;;9.81;45.03;101788.03;4954730;28;109715;-66
2023/01/29 04:21:27;;;;;;;;;;;;;;;9.81;45.02;101782.66;4955675;28;129206;-66
2023/01/29 04:23:53;;;;;;;;;;;;;;;9.81;44.70;101792.59;4944886;28;128696;-67
2023/01/29 04:26:54;;;;;;;;;;;;;;;9.81;44.87;101790.72;4960651;28;99293;-66
2023/01/29 04:29:37;;;;;;;;;;;;;;;9.81;45.34;101779.97;4909081;28;118590;-66
2023/01/29 04:32:16;;;;;;;;;;;;;;;9.81;45.43;101771.88;4947286;28;98693;-66
2023/01/29 04:34:58;;;;;;;;;;;;;;;9.82;45.46;101776.25;4960611;28;99294;-66
2023/01/29 04:37:49;;;;;;;;;;;;;;;9.82;44.83;101762.78;4959966;28;117422;-66
2023/01/29 04:40:25;;;;;;;;;;;;;;;9.82;45.13;101760.06;4951189;28;97850;-66
2023/01/29 04:43:00;;;;;;;;;;;;;;;9.83;45.05;101761.72;4950574;28;99342;-66
2023/01/29 04:45:40;;;;;;;;;;;;;;;9.83;45.03;101760.91;4959631;28;101043;-66
2023/01/29 04:48:42;;;;;;;;;;;;;;;9.84;45.45;101754.44;4946137;28;98912;-66
2023/01/29 04:51:31;;;;;;;;;;;;;;;9.86;45.42;101752.31;4951053;28;113419;-66
2023/01/29 04:54:12;;;;;;;;;;;;;;;9.86;45.49;101743.44;4959439;28;122959;-66
2023/01/29 04:56:53;;;;;;;;;;;;;;;9.86;44.92;101736.16;4960199;28;123875;-66
2023/01/29 04:59:25;;;;;;;;;;;;;;;9.87;44.93;101731.63;4944853;28;123051;-67
2023/01/29 05:01:51;;;;;;;;;;;;;;;9.88;44.81;101736.78;4946615;28;106995;-66
2023/01/29 05:04:18;;;;;;;;;;;;;;;9.87;44.86;101726.25;4961792;28;98429;-66
2023/01/29 05:06:45;;;;;;;;;;;;;;;9.89;45.37;101724.13;4959989;28;98423;-66
2023/01/29 05:09:12;;;;;;;;;;;;;;;9.89;45.28;101732.19;4943376;28;98075;-66
2023/01/29 05:11:38;;;;;;;;;;;;;;;9.89;45.13;101733.03;4939816;28;101862;-66
2023/01/29 05:14:05;;;;;;;;;;;;;;;9.89;45.32;101722.25;4955839;28;127816;-66
2023/01/29 05:16:46;;;;;;;;;;;;;;;9.90;45.25;101721.19;4955325;28;123730;-66
2023/01/29 05:19:13;;;;;;;;;;;;;;;9.90;44.64;101717.69;4956730;28;98174;-66
2023/01/29 05:21:40;;;;;;;;;;;;;;;9.90;44.91;101713.09;4931039;28;97846;-67
2023/01/29 05:24:14;;;;;;;;;;;;;;;9.90;44.83;101715.78;4959959;28;125468;-66
2023/01/29 05:29:26;;;;;;;;;;;;;;;9.90;44.90;101707.72;4957216;28;98070;-66
2023/01/29 05:31:51;;;;;;;;;;;;;;;9.89;44.71;101706.09;4958042;28;98257;-66
2023/01/29 05:34:17;;;;;;;;;;;;;;;9.91;45.15;101705.88;4959365;28;127218;-66
2023/01/29 05:36:43;;;;;;;;;;;;;;;9.91;45.37;101703.19;4955720;28;129379;-66
2023/01/29 05:39:09;;;;;;;;;;;;;;;9.90;44.85;101693.44;4923822;28;128044;-66
2023/01/29 05:41:35;;;;;;;;;;;;;;;9.90;44.84;101686.16;4943704;28;116274;-66
2023/01/29 05:44:01;;;;;;;;;;;;;;;9.91;45.37;101695.09;4959999;28;98510;-66
2023/01/29 05:46:27;;;;;;;;;;;;;;;9.91;45.15;101700.47;4942808;28;129800;-66
2023/01/29 05:48:53;;;;;;;;;;;;;;;9.90;44.89;101699.63;4955976;28;111451;-66
2023/01/29 05:51:19;;;;;;;;;;;;;;;9.90;45.55;101709.59;4938713;28;120011;-66
2023/01/29 05:53:45;;;;;;;;;;;;;;;9.91;44.95;101705.88;4958535;28;127361;-66
2023/01/29 05:56:11;;;;;;;;;;;;;;;9.91;45.54;101711.25;4940697;28;100060;-66
2023/01/29 05:58:36;;;;;;;;;;;;;;;9.91;44.97;101700.47;4958146;28;98057;-66
2023/01/29 06:01:13;;;;;;;;;;;;;;;9.91;44.97;101700.47;4940394;28;117630;-66
2023/01/29 06:03:38;;;;;;;;;;;;;;;9.91;45.11;101708.56;4959909;28;98668;-66
2023/01/29 06:06:05;;;;;;;;;;;;;;;9.90;44.76;101720.38;4958359;28;128028;-65
2023/01/29 06:08:30;;;;;;;;;;;;;;;9.91;44.84;101725.53;4938963;28;125496;-65
2023/01/29 06:10:56;;;;;;;;;;;;;;;9.91;45.00;101735.50;4958949;28;117923;-65
2023/01/29 06:13:22;;;;;;;;;;;;;;;9.91;44.90;101736.31;4954041;28;127276;-66
2023/01/29 06:15:48;;;;;;;;;;;;;;;9.91;44.93;101738.19;4956393;28;128274;-65
2023/01/29 06:18:14;;;;;;;;;;;;;;;9.92;44.98;101740.66;4925708;28;127291;-66
2023/01/29 06:20:40;;;;;;;;;;;;;;;9.92;45.55;101747.91;4957960;28;119033;-66
2023/01/29 06:23:06;;;;;;;;;;;;;;;9.93;45.33;101747.66;4956145;28;128457;-66
2023/01/29 06:25:32;;;;;;;;;;;;;;;9.92;45.07;101756.81;4955782;28;127546;-66
2023/01/29 06:27:58;;;;;;;;;;;;;;;9.93;45.41;101758.44;4957085;28;126228;-66
2023/01/29 06:30:23;;;;;;;;;;;;;;;9.93;45.17;101761.13;4956545;28;116926;-66
2023/01/29 06:32:49;;;;;;;;;;;;;;;9.93;44.82;101758.44;4940338;28;127797;-67
2023/01/29 06:35:15;;;;;;;;;;;;;;;9.95;45.51;101760.91;4935838;28;129668;-66
2023/01/29 06:37:41;;;;;;;;;;;;;;;9.96;45.15;101751.78;4930186;28;126997;-66
2023/01/29 06:40:08;;;;;;;;;;;;;;;9.95;44.95;101756.34;4956473;28;112995;-66
2023/01/29 06:42:37;;;;;;;;;;;;;;;9.96;44.85;101765.25;4952829;28;123503;-66
2023/01/29 06:45:03;;;;;;;;;;;;;;;9.98;44.87;101776.59;4956575;28;127963;-66
2023/01/29 06:47:29;;;;;;;;;;;;;;;9.98;44.83;101787.38;4959763;28;115533;-66
2023/01/29 06:49:55;;;;;;;;;;;;;;;9.99;44.97;101807.88;4963221;28;116078;-66
2023/01/29 06:52:21;;;;;;;;;;;;;;;9.99;44.71;101803.31;4956094;28;103710;-67
2023/01/29 06:54:46;;;;;;;;;;;;;;;10.00;44.79;101804.94;4957222;28;99179;-67
2023/01/29 06:57:12;;;;;;;;;;;;;;;10.02;44.71;101810.94;4928072;28;106678;-66
2023/01/29 06:59:38;;;;;;;;;;;;;;;10.04;45.10;101813.41;4942723;28;117477;-66
2023/01/29 07:02:04;;;;;;;;;;;;;;;10.07;44.57;101812.94;4940647;28;126935;-66
2023/01/29 07:04:30;;;;;;;;;;;;;;;10.09;44.62;101818.91;4956066;28;128244;-66
2023/01/29 07:06:57;;;;;;;;;;;;;;;10.12;44.98;101814.94;4953805;28;119022;-66
2023/01/29 07:09:23;;;;;;;;;;;;;;;10.14;45.07;101813.66;4953124;28;113816;-66
2023/01/29 07:11:49;;;;;;;;;;;;;;;10.19;44.72;101807.56;4940605;28;127629;-65
2023/01/29 07:14:15;;;;;;;;;;;;;;;10.21;44.67;101806.25;4958783;28;98278;-65
2023/01/29 07:16:41;;;;;;;;;;;;;;;10.24;44.80;101797.72;4946465;28;127562;-66
2023/01/29 07:19:07;;;;;;;;;;;;;;;10.25;44.79;101798.56;4937668;28;115760;-66
2023/01/29 07:21:33;;;;;;;;;;;;;;;10.28;44.65;101804.31;4956104;28;127978;-66
2023/01/29 07:23:59;;;;;;;;;;;;;;;10.29;45.14;101800.56;4955115;28;128125;-66
2023/01/29 07:26:25;;;;;;;;;;;;;;;10.32;44.53;101804.69;4937310;28;98349;-66
2023/01/29 07:28:51;;;;;;;;;;;;;;;10.33;44.62;101800.91;4952180;28;98068;-66
2023/01/29 07:31:17;;;;;;;;;;;;;;;10.35;44.88;101801.53;4937907;28;126349;-67
2023/01/29 07:33:43;;;;;;;;;;;;;;;10.37;44.41;101802.09;4937729;28;98308;-66
2023/01/29 07:36:09;;;;;;;;;;;;;;;10.40;44.95;101800.81;4938211;28;105895;-67
2023/01/29 07:38:35;;;;;;;;;;;;;;;10.42;44.83;101806.81;4953094;28;108349;-66
2023/01/29 07:41:01;;;;;;;;;;;;;;;10.45;44.40;101804.47;4948168;28;128455;-66
2023/01/29 07:43:27;;;;;;;;;;;;;;;10.50;44.47;101791.09;4936498;28;128470;-66
2023/01/29 07:45:53;;;;;;;;;;;;;;;10.56;44.96;101784.75;4939425;28;98013;-66
2023/01/29 07:48:19;;;;;;;;;;;;;;;10.62;44.67;101776.78;4953930;28;117725;-66
2023/01/29 07:50:45;;;;;;;;;;;;;;;10.66;44.37;101775.28;4950806;28;128213;-66
2023/01/29 07:53:12;;;;;;;;;;;;;;;10.73;44.86;101762.47;4937218;28;114377;-67
2023/01/29 07:55:38;;;;;;;;;;;;;;;10.81;44.41;101772.91;4952632;28;99379;-66
2023/01/29 07:58:04;;;;;;;;;;;;;;;10.88;44.73;101767.34;4937678;28;117417;-67
2023/01/29 08:00:31;;;;;;;;;;;;;;;10.93;44.26;101754.00;4923328;28;98139;-66
2023/01/29 08:03:09;;;;;;;;;;;;;;;11.00;44.19;101733.06;4956351;28;98356;-66
2023/01/29 08:05:34;;;;;;;;;;;;;;;11.07;44.60;101721.09;4953599;28;111589;-66
2023/01/29 08:08:00;;;;;;;;;;;;;;;11.13;44.14;101727.41;4937232;28;116835;-67
2023/01/29 08:10:26;;;;;;;;;;;;;;;11.19;44.62;101720.22;4952624;28;130848;-67
2023/01/29 08:12:59;;;;;;;;;;;;;;;11.23;44.43;101730.28;4953692;28;103932;-66
2023/01/29 08:15:25;;;;;;;;;;;;;;;11.27;44.22;101739.53;4953699;28;98071;-66
2023/01/29 08:17:52;;;;;;;;;;;;;;;11.27;44.22;101747.66;4923583;28;98310;-66
2023/01/29 08:20:18;;;;;;;;;;;;;;;11.28;44.64;101735.81;4953022;28;117629;-66
2023/01/29 08:22:44;;;;;;;;;;;;;;;11.30;44.48;101733.66;4938399;28;98164;-66
2023/01/29 08:25:10;;;;;;;;;;;;;;;11.30;44.21;101747.16;4952273;28;122492;-66
2023/01/29 08:27:36;;;;;;;;;;;;;;;11.29;44.64;101753.63;4936894;28;106383;-67
2023/01/29 08:30:02;;;;;;;;;;;;;;;11.31;44.60;101745.28;4937991;28;126338;-66
2023/01/29 08:32:28;;;;;;;;;;;;;;;11.31;44.66;101739.88;4954170;28;124709;-67
2023/01/29 08:34:54;;;;;;;;;;;;;;;11.32;44.66;101730.75;4935438;28;129020;-66
2023/01/29 08:37:20;;;;;;;;;;;;;;;11.34;44.28;101735.91;4953216;28;117060;-66
2023/01/29 08:39:46;;;;;;;;;;;;;;;11.36;44.59;101747.25;4951408;28;129194;-67
2023/01/29 08:42:12;;;;;;;;;;;;;;;11.37;44.46;101741.63;4949845;28;127899;-66
2023/01/29 08:44:37;;;;;;;;;;;;;;;11.38;44.62;101729.75;4935228;28;127843;-66
2023/01/29 08:47:03;;;;;;;;;;;;;;;11.41;44.56;101714.97;4935496;28;119112;-67
2023/01/29 08:49:29;;;;;;;;;;;;;;;11.42;44.47;101711.19;4952325;28;126420;-66
2023/01/29 08:51:56;;;;;;;;;;;;;;;11.41;44.51;101709.56;4953204;28;127484;-66
2023/01/29 08:54:22;;;;;;;;;;;;;;;11.44;44.21;101720.72;4938768;28;97966;-67
2023/01/29 08:56:48;;;;;;;;;;;;;;;11.45;44.44;101724.22;4959573;28;102499;-66
2023/01/29 08:59:14;;;;;;;;;;;;;;;11.46;44.64;101731.25;4941055;28;127612;-66
2023/01/29 09:01:40;;;;;;;;;;;;;;;11.45;44.28;101735.84;4925408;28;99488;-66
2023/01/29 09:04:06;;;;;;;;;;;;;;;11.47;44.36;101728.31;4923475;28;118119;-66
2023/01/29 09:06:32;;;;;;;;;;;;;;;11.50;44.51;101710.81;4956344;28;118746;-66
2023/01/29 09:08:58;;;;;;;;;;;;;;;11.57;44.41;101699.84;4940299;28;121287;-66
2023/01/29 09:11:24;;;;;;;;;;;;;;;11.61;44.40;101704.53;4953111;28;127014;-66
2023/01/29 09:13:50;;;;;;;;;;;;;;;11.62;44.42;101716.97;4955649;28;127363;-66
2023/01/29 09:16:16;;;;;;;;;;;;;;;11.64;44.39;101712.16;4939006;28;116921;-67
2023/01/29 09:18:41;;;;;;;;;;;;;;;11.65;44.47;101715.66;4935665;28;122076;-66
2023/01/29 09:21:07;;;;;;;;;;;;;;;11.66;44.43;101709.19;4940475;28;129779;-66
2023/01/29 09:23:33;;;;;;;;;;;;;;;11.65;44.32;101707.56;4938416;28;127675;-66
2023/01/29 09:25:59;;;;;;;;;;;;;;;11.63;44.49;101712.38;4957838;28;97926;-67
2023/01/29 09:28:25;;;;;;;;;;;;;;;11.60;44.50;101719.09;4938486;28;127721;-66
2023/01/29 09:30:51;;;;;;;;;;;;;;;11.59;44.59;101713.91;4954171;28;122870;-66
2023/01/29 09:33:17;;;;;;;;;;;;;;;11.56;44.43;101701.75;4938274;28;128305;-66
2023/01/29 09:35:44;;;;;;;;;;;;;;;11.56;44.47;101707.16;4957002;28;97922;-67
2023/01/29 09:38:10;;;;;;;;;;;;;;;11.57;44.73;101692.56;4939776;28;98008;-66
2023/01/29 09:41:12;;;;;;;;;;;;;;;11.57;44.25;101697.16;4953984;28;116806;-66
2023/01/29 09:43:57;;;;;;;;;;;;;;;11.55;44.70;101695.53;4955773;28;97959;-66
2023/01/29 09:46:31;;;;;;;;;;;;;;;11.55;44.54;101681.19;4956263;28;98124;-66
2023/01/29 09:49:05;;;;;;;;;;;;;;;11.54;44.68;101687.66;4956388;28;99669;-66
2023/01/29 09:51:36;;;;;;;;;;;;;;;11.54;44.30;101693.06;4954135;28;117225;-66
2023/01/29 09:54:11;;;;;;;;;;;;;;;11.55;44.43;101700.09;4956699;28;120336;-67
2023/01/29 09:56:37;;;;;;;;;;;;;;;11.54;44.64;101703.84;4956529;28;98653;-66
2023/01/29 09:59:02;;;;;;;;;;;;;;;11.53;44.51;101699.53;4954178;28;122049;-66
2023/01/29 10:01:37;;;;;;;;;;;;;;;11.52;44.53;101697.91;4954185;28;98623;-66
2023/01/29 10:04:27;;;;;;;;;;;;;;;11.50;44.66;101698.13;4940835;28;100396;-66
2023/01/29 10:07:11;;;;;;;;;;;;;;;11.50;44.54;101692.72;4956052;28;98253;-66
2023/01/29 10:10:01;;;;;;;;;;;;;;;11.47;44.55;101693.19;4955395;28;99749;-66
2023/01/29 10:12:46;;;;;;;;;;;;;;;11.44;44.67;101688.31;4939409;28;110863;-66
2023/01/29 10:15:24;;;;;;;;;;;;;;;11.42;44.48;101692.31;4936892;28;104416;-66
2023/01/29 10:17:53;;;;;;;;;;;;;;;11.38;44.86;101697.38;4954952;28;112360;-66
2023/01/29 10:20:31;;;;;;;;;;;;;;;11.36;44.65;101688.72;4952432;28;98297;-66
2023/01/29 10:23:29;;;;;;;;;;;;;;;11.36;44.73;101682.47;4940778;28;124031;-66
2023/01/29 10:25:55;;;;;;;;;;;;;;;11.38;44.55;101683.88;4963564;27;100165;-66
2023/01/29 10:28:38;;;;;;;;;;;;;;;11.41;44.38;101680.69;4952724;28;118366;-66
2023/01/29 10:31:07;;;;;;;;;;;;;;;11.45;44.59;101678.31;4940468;28;114710;-66
2023/01/29 10:33:41;;;;;;;;;;;;;;;11.49;44.49;101679.47;4940338;28;124785;-66
2023/01/29 10:36:12;;;;;;;;;;;;;;;11.49;44.64;101669.50;4935213;28;98053;-66
2023/01/29 10:38:51;;;;;;;;;;;;;;;11.49;44.44;101663.28;4954353;28;98420;-66
2023/01/29 10:41:28;;;;;;;;;;;;;;;11.48;44.36;101640.84;4954830;28;128850;-65
2023/01/29 10:44:21;;;;;;;;;;;;;;;11.48;44.47;101637.34;4955959;28;98243;-66
2023/01/29 10:47:07;;;;;;;;;;;;;;;11.49;44.47;101633.56;4941862;28;98052;-66
2023/01/29 10:49:55;;;;;;;;;;;;;;;11.50;44.49;101636.00;4940603;28;98947;-66
2023/01/29 10:52:45;;;;;;;;;;;;;;;11.50;44.39;101630.63;4952446;28;98581;-66
2023/01/29 10:55:19;;;;;;;;;;;;;;;11.51;44.39;101624.19;4954265;28;98334;-66
2023/01/29 10:58:17;;;;;;;;;;;;;;;11.52;44.32;101617.72;4955003;28;98192;-66
2023/01/29 11:00:42;;;;;;;;;;;;;;;11.53;44.40;101618.53;4948320;28;98285;-66
2023/01/29 11:03:35;;;;;;;;;;;;;;;11.55;44.39;101608.28;4938058;28;118429;-65
2023/01/29 11:06:14;;;;;;;;;;;;;;;11.56;44.51;101601.84;4955358;28;98293;-66
2023/01/29 11:09:00;;;;;;;;;;;;;;;11.58;44.40;101601.56;4953411;28;98294;-66
2023/01/29 11:11:42;;;;;;;;;;;;;;;11.57;44.11;101598.06;4959233;28;98166;-66
2023/01/29 11:14:20;;;;;;;;;;;;;;;11.55;44.51;101584.81;4922831;28;114573;-66
2023/01/29 11:16:46;;;;;;;;;;;;;;;11.55;44.53;101583.97;4954717;28;100186;-66
2023/01/29 11:19:13;;;;;;;;;;;;;;;11.53;44.45;101576.13;4951487;28;109304;-66
2023/01/29 11:21:58;;;;;;;;;;;;;;;11.50;44.55;101578.50;4952523;28;99847;-66
2023/01/29 11:24:24;;;;;;;;;;;;;;;11.46;44.60;101588.97;4937975;28;116659;-66
2023/01/29 11:26:51;;;;;;;;;;;;;;;11.44;44.54;101587.59;4954896;28;128707;-66
2023/01/29 11:29:45;;;;;;;;;;;;;;;11.43;44.50;101599.44;4934497;28;115333;-66
2023/01/29 11:32:13;;;;;;;;;;;;;;;11.51;44.46;101593.63;4953495;28;97948;-66
2023/01/29 11:34:55;;;;;;;;;;;;;;;11.58;44.32;101599.69;4937422;28;98357;-68
2023/01/29 11:37:21;;;;;;;;;;;;;;;11.64;44.28;101593.31;4952894;28;98907;-66
2023/01/29 11:39:47;;;;;;;;;;;;;;;11.66;44.38;101584.94;4948630;28;126449;-67
2023/01/29 11:42:20;;;;;;;;;;;;;;;11.68;44.23;101574.72;4954503;28;98016;-66
2023/01/29 11:44:46;;;;;;;;;;;;;;;11.73;44.29;101556.72;4937085;28;106569;-67
2023/01/29 11:47:25;;;;;;;;;;;;;;;11.87;44.18;101537.47;4953543;28;125962;-66
2023/01/29 11:49:52;;;;;;;;;;;;;;;12.09;43.87;101526.66;4938424;28;109764;-66
2023/01/29 11:52:26;;;;;;;;;;;;;;;12.20;43.82;101533.84;4954170;28;97966;-67
2023/01/29 11:54:58;;;;;;;;;;;;;;;12.24;43.81;101530.38;4938135;28;98385;-66
2023/01/29 11:57:35;;;;;;;;;;;;;;;12.31;43.88;101515.84;4939716;28;98156;-65
2023/01/29 12:00:06;;;;;;;;;;;;;;;12.41;43.92;101514.06;4941442;28;114194;-65
2023/01/29 12:02:36;;;;;;;;;;;;;;;12.48;43.63;101524.69;4938536;28;111710;-65
2023/01/29 12:05:04;;;;;;;;;;;;;;;12.52;43.94;101520.41;4933960;28;120459;-65
2023/01/29 12:07:30;;;;;;;;;;;;;;;12.49;43.87;101520.91;4936104;28;102504;-66
2023/01/29 12:09:57;;;;;;;;;;;;;;;12.44;44.09;101512.75;4936796;28;103099;-65
2023/01/29 12:12:35;;;;;;;;;;;;;;;12.45;44.21;101508.97;4953628;28;98024;-66
2023/01/29 12:15:15;;;;;;;;;;;;;;;12.44;43.99;101504.63;4953682;28;119380;-66
2023/01/29 12:17:42;;;;;;;;;;;;;;;12.44;43.84;101501.94;4954715;28;97853;-66
2023/01/29 12:20:21;;;;;;;;;;;;;;;12.46;43.92;101508.72;4952336;28;125716;-66
2023/01/29 12:22:56;;;;;;;;;;;;;;;12.43;44.34;101505.72;4955495;28;108419;-66
2023/01/29 12:25:48;;;;;;;;;;;;;;;12.43;44.10;101503.00;4936788;28;125418;-66
2023/01/29 12:28:51;;;;;;;;;;;;;;;12.42;44.18;101510.31;4952554;28;98363;-66
2023/01/29 12:31:28;;;;;;;;;;;;;;;12.41;44.23;101507.84;4956310;28;99509;-67
2023/01/29 12:34:28;;;;;;;;;;;;;;;12.39;44.20;101502.69;4952233;28;111438;-66
2023/01/29 12:36:57;;;;;;;;;;;;;;;12.38;44.10;101497.53;4961195;28;100386;-67
2023/01/29 12:39:23;;;;;;;;;;;;;;;12.36;44.20;101500.50;4939463;28;128738;-66
2023/01/29 12:42:13;;;;;;;;;;;;;;;12.35;44.34;101498.88;4940069;28;128285;-67
2023/01/29 12:44:42;;;;;;;;;;;;;;;12.34;44.22;101491.84;4943016;28;105053;-66
2023/01/29 12:47:29;;;;;;;;;;;;;;;12.34;44.06;101501.81;4958325;28;98246;-66
2023/01/29 12:49:56;;;;;;;;;;;;;;;12.32;44.37;101495.84;4942789;28;106128;-65
2023/01/29 12:52:40;;;;;;;;;;;;;;;12.29;44.32;101492.56;4940112;28;100079;-65
2023/01/29 12:55:14;;;;;;;;;;;;;;;12.32;44.41;101487.75;4942163;28;117128;-66
2023/01/29 12:57:46;;;;;;;;;;;;;;;12.36;44.33;101478.06;4953806;28;126020;-66
2023/01/29 13:00:32;;;;;;;;;;;;;;;12.37;44.26;101464.28;4937993;28;106223;-66
2023/01/29 13:03:00;;;;;;;;;;;;;;;12.38;44.13;101470.50;4940808;28;98364;-67
2023/01/29 13:05:37;;;;;;;;;;;;;;;12.37;44.47;101466.97;4958264;28;98296;-67
2023/01/29 13:08:09;;;;;;;;;;;;;;;12.35;44.29;101471.84;4943860;28;127423;-66
2023/01/29 13:10:37;;;;;;;;;;;;;;;12.33;44.39;101470.44;4957626;28;117481;-65
2023/01/29 13:13:06;;;;;;;;;;;;;;;12.32;44.51;101466.94;4957340;28;125140;-66
2023/01/29 13:15:37;;;;;;;;;;;;;;;12.31;44.49;101465.31;4938927;28;106274;-68
2023/01/29 13:18:40;;;;;;;;;;;;;;;12.29;44.39;101462.84;4940092;28;99469;-66
2023/01/29 13:21:10;;;;;;;;;;;;;;;12.27;44.32;101461.47;4956343;28;100190;-66
2023/01/29 13:23:38;;;;;;;;;;;;;;;12.24;44.05;101460.09;4939711;28;122119;-66